sensor_id;sensor_type;location;lat;lon;timestamp;pressure;altitude;pressure_sealevel;temperature;humidity
42105;BME280;61464;51.472;5.712;2022-10-12T00:02:02;102327.19;;;3.99;100.00
42105;BME280;61464;51.472;5.712;2022-10-12T00:04:28;102317.78;;;4.00;100.00
42105;BME280;61464;51.472;5.712;2022-10-12T00:06:54;102322.50;;;4.08;100.00
42105;BME280;61464;51.472;5.712;2022-10-12T00:09:20;102320.63;;;4.11;100.00
42105;BME280;61464;51.472;5.712;2022-10-12T00:11:46;102326.75;;;4.09;100.00
42105;BME280;61464;51.472;5.712;2022-10-12T00:14:11;102321.31;;;3.97;100.00
42105;BME280;61464;51.472;5.712;2022-10-12T00:16:37;102319.50;;;3.99;100.00
42105;BME280;61464;51.472;5.712;2022-10-12T00:19:03;102323.19;;;4.11;100.00
42105;BME280;61464;51.472;5.712;2022-10-12T00:21:29;102320.84;;;4.07;100.00
42105;BME280;61464;51.472;5.712;2022-10-12T00:24:00;102318.44;;;4.03;100.00
42105;BME280;61464;51.472;5.712;2022-10-12T00:26:26;102313.84;;;4.10;100.00
42105;BME280;61464;51.472;5.712;2022-10-12T00:28:59;102318.28;;;4.07;100.00
42105;BME280;61464;51.472;5.712;2022-10-12T00:31:27;102307.53;;;4.16;100.00
42105;BME280;61464;51.472;5.712;2022-10-12T00:33:53;102309.44;;;4.12;100.00
42105;BME280;61464;51.472;5.712;2022-10-12T00:36:24;102310.66;;;4.05;100.00
42105;BME280;61464;51.472;5.712;2022-10-12T00:38:52;102311.25;;;4.10;100.00
42105;BME280;61464;51.472;5.712;2022-10-12T00:41:23;102310.09;;;4.16;100.00
42105;BME280;61464;51.472;5.712;2022-10-12T00:43:50;102302.94;;;4.05;100.00
42105;BME280;61464;51.472;5.712;2022-10-12T00:46:38;102300.22;;;4.08;100.00
42105;BME280;61464;51.472;5.712;2022-10-12T00:49:22;102298.41;;;4.10;100.00
42105;BME280;61464;51.472;5.712;2022-10-12T00:52:02;102301.88;;;4.09;100.00
42105;BME280;61464;51.472;5.712;2022-10-12T00:54:33;102298.88;;;4.01;100.00
42105;BME280;61464;51.472;5.712;2022-10-12T00:57:03;102302.25;;;4.01;100.00
42105;BME280;61464;51.472;5.712;2022-10-12T00:59:43;102301.28;;;4.04;100.00
42105;BME280;61464;51.472;5.712;2022-10-12T01:02:12;102302.06;;;3.89;100.00
42105;BME280;61464;51.472;5.712;2022-10-12T01:04:38;102299.09;;;3.79;100.00
42105;BME280;61464;51.472;5.712;2022-10-12T01:07:07;102301.59;;;3.80;100.00
42105;BME280;61464;51.472;5.712;2022-10-12T01:09:33;102296.34;;;3.83;100.00
42105;BME280;61464;51.472;5.712;2022-10-12T01:11:59;102301.59;;;3.80;100.00
42105;BME280;61464;51.472;5.712;2022-10-12T01:14:25;102306.59;;;3.83;100.00
42105;BME280;61464;51.472;5.712;2022-10-12T01:17:02;102299.47;;;3.89;100.00
42105;BME280;61464;51.472;5.712;2022-10-12T01:22:18;102302.69;;;4.10;100.00
42105;BME280;61464;51.472;5.712;2022-10-12T01:27:54;102298.94;;;3.99;100.00
42105;BME280;61464;51.472;5.712;2022-10-12T01:30:35;102298.88;;;4.01;100.00
42105;BME280;61464;51.472;5.712;2022-10-12T01:35:53;102289.84;;;4.10;100.00
42105;BME280;61464;51.472;5.712;2022-10-12T01:38:31;102282.81;;;4.13;100.00
42105;BME280;61464;51.472;5.712;2022-10-12T01:41:43;102277.00;;;4.10;100.00
42105;BME280;61464;51.472;5.712;2022-10-12T01:44:01;102271.44;;;4.01;100.00
42105;BME280;61464;51.472;5.712;2022-10-12T01:48:59;102265.25;;;4.21;100.00
42105;BME280;61464;51.472;5.712;2022-10-12T02:01:20;102262.13;;;4.32;100.00
42105;BME280;61464;51.472;5.712;2022-10-12T02:06:31;102266.84;;;4.24;100.00
42105;BME280;61464;51.472;5.712;2022-10-12T02:09:07;102265.94;;;4.25;100.00
42105;BME280;61464;51.472;5.712;2022-10-12T02:11:38;102262.00;;;4.18;100.00
42105;BME280;61464;51.472;5.712;2022-10-12T02:14:15;102261.19;;;4.17;100.00
42105;BME280;61464;51.472;5.712;2022-10-12T02:17:06;102252.91;;;4.12;100.00
42105;BME280;61464;51.472;5.712;2022-10-12T02:19:40;102258.69;;;4.00;100.00
42105;BME280;61464;51.472;5.712;2022-10-12T02:22:09;102255.44;;;3.96;100.00
42105;BME280;61464;51.472;5.712;2022-10-12T02:24:40;102260.06;;;3.90;100.00
42105;BME280;61464;51.472;5.712;2022-10-12T02:27:08;102259.81;;;3.94;100.00
42105;BME280;61464;51.472;5.712;2022-10-12T02:29:39;102259.22;;;3.89;100.00
42105;BME280;61464;51.472;5.712;2022-10-12T02:32:50;102243.22;;;3.84;100.00
42105;BME280;61464;51.472;5.712;2022-10-12T02:36:07;102242.97;;;3.89;100.00
42105;BME280;61464;51.472;5.712;2022-10-12T02:38:27;102239.78;;;4.01;100.00
42105;BME280;61464;51.472;5.712;2022-10-12T02:41:01;102238.00;;;3.86;100.00
42105;BME280;61464;51.472;5.712;2022-10-12T02:43:42;102234.59;;;3.85;100.00
42105;BME280;61464;51.472;5.712;2022-10-12T02:46:10;102234.38;;;3.72;100.00
42105;BME280;61464;51.472;5.712;2022-10-12T02:48:39;102241.25;;;3.54;100.00
42105;BME280;61464;51.472;5.712;2022-10-12T02:51:06;102231.00;;;3.72;100.00
42105;BME280;61464;51.472;5.712;2022-10-12T02:53:33;102225.03;;;3.71;100.00
42105;BME280;61464;51.472;5.712;2022-10-12T02:56:04;102229.63;;;3.65;100.00
42105;BME280;61464;51.472;5.712;2022-10-12T02:58:30;102233.03;;;3.65;100.00
42105;BME280;61464;51.472;5.712;2022-10-12T03:00:56;102231.59;;;3.59;100.00
42105;BME280;61464;51.472;5.712;2022-10-12T03:03:22;102230.84;;;3.57;100.00
42105;BME280;61464;51.472;5.712;2022-10-12T03:05:48;102227.84;;;3.49;100.00
42105;BME280;61464;51.472;5.712;2022-10-12T03:08:13;102225.41;;;3.46;100.00
42105;BME280;61464;51.472;5.712;2022-10-12T03:10:39;102231.47;;;3.45;100.00
42105;BME280;61464;51.472;5.712;2022-10-12T03:13:05;102228.16;;;3.43;100.00
42105;BME280;61464;51.472;5.712;2022-10-12T03:15:31;102224.06;;;3.39;100.00
42105;BME280;61464;51.472;5.712;2022-10-12T03:17:56;102226.41;;;3.43;100.00
42105;BME280;61464;51.472;5.712;2022-10-12T03:20:22;102225.34;;;3.30;100.00
42105;BME280;61464;51.472;5.712;2022-10-12T03:22:48;102221.72;;;3.34;100.00
42105;BME280;61464;51.472;5.712;2022-10-12T03:25:15;102216.66;;;3.33;100.00
42105;BME280;61464;51.472;5.712;2022-10-12T03:27:41;102231.41;;;3.47;100.00
42105;BME280;61464;51.472;5.712;2022-10-12T03:30:07;102227.31;;;3.42;100.00
42105;BME280;61464;51.472;5.712;2022-10-12T03:32:36;102222.69;;;3.32;100.00
42105;BME280;61464;51.472;5.712;2022-10-12T03:35:03;102225.50;;;3.27;100.00
42105;BME280;61464;51.472;5.712;2022-10-12T03:37:29;102220.81;;;3.18;100.00
42105;BME280;61464;51.472;5.712;2022-10-12T03:39:55;102213.88;;;3.20;100.00
42105;BME280;61464;51.472;5.712;2022-10-12T03:42:21;102209.19;;;3.11;100.00
42105;BME280;61464;51.472;5.712;2022-10-12T03:44:46;102219.72;;;3.05;100.00
42105;BME280;61464;51.472;5.712;2022-10-12T03:47:12;102217.06;;;2.89;100.00
42105;BME280;61464;51.472;5.712;2022-10-12T03:49:38;102218.84;;;3.06;100.00
42105;BME280;61464;51.472;5.712;2022-10-12T03:52:04;102210.91;;;3.10;100.00
42105;BME280;61464;51.472;5.712;2022-10-12T03:54:30;102214.69;;;3.20;100.00
42105;BME280;61464;51.472;5.712;2022-10-12T03:56:56;102217.00;;;2.90;100.00
42105;BME280;61464;51.472;5.712;2022-10-12T03:59:22;102216.06;;;3.10;100.00
42105;BME280;61464;51.472;5.712;2022-10-12T04:01:48;102210.97;;;2.91;100.00
42105;BME280;61464;51.472;5.712;2022-10-12T04:04:13;102211.28;;;2.85;100.00
42105;BME280;61464;51.472;5.712;2022-10-12T04:06:39;102202.34;;;2.75;100.00
42105;BME280;61464;51.472;5.712;2022-10-12T04:09:05;102204.16;;;2.73;100.00
42105;BME280;61464;51.472;5.712;2022-10-12T04:11:31;102206.72;;;2.54;100.00
42105;BME280;61464;51.472;5.712;2022-10-12T04:13:56;102206.72;;;2.54;100.00
42105;BME280;61464;51.472;5.712;2022-10-12T04:16:22;102201.66;;;2.71;100.00
42105;BME280;61464;51.472;5.712;2022-10-12T04:18:48;102193.25;;;2.68;100.00
42105;BME280;61464;51.472;5.712;2022-10-12T04:21:15;102195.69;;;2.71;100.00
42105;BME280;61464;51.472;5.712;2022-10-12T04:23:42;102199.44;;;2.64;100.00
42105;BME280;61464;51.472;5.712;2022-10-12T04:26:08;102195.84;;;2.49;100.00
42105;BME280;61464;51.472;5.712;2022-10-12T04:28:34;102205.34;;;2.47;100.00
42105;BME280;61464;51.472;5.712;2022-10-12T04:31:00;102205.97;;;2.33;100.00
42105;BME280;61464;51.472;5.712;2022-10-12T04:33:26;102195.22;;;2.44;100.00
42105;BME280;61464;51.472;5.712;2022-10-12T04:35:52;102193.56;;;2.42;100.00
42105;BME280;61464;51.472;5.712;2022-10-12T04:38:17;102194.56;;;2.40;100.00
42105;BME280;61464;51.472;5.712;2022-10-12T04:40:47;102197.75;;;2.26;100.00
42105;BME280;61464;51.472;5.712;2022-10-12T04:43:14;102201.81;;;2.30;100.00
42105;BME280;61464;51.472;5.712;2022-10-12T04:45:40;102209.03;;;2.22;100.00
42105;BME280;61464;51.472;5.712;2022-10-12T04:48:06;102212.34;;;2.24;100.00
42105;BME280;61464;51.472;5.712;2022-10-12T04:50:32;102207.34;;;2.59;100.00
42105;BME280;61464;51.472;5.712;2022-10-12T04:52:58;102208.50;;;2.52;100.00
42105;BME280;61464;51.472;5.712;2022-10-12T04:55:24;102210.00;;;2.38;100.00
42105;BME280;61464;51.472;5.712;2022-10-12T04:57:50;102202.16;;;2.41;100.00
42105;BME280;61464;51.472;5.712;2022-10-12T05:00:16;102205.84;;;2.36;100.00
42105;BME280;61464;51.472;5.712;2022-10-12T05:02:42;102207.78;;;2.31;100.00
42105;BME280;61464;51.472;5.712;2022-10-12T05:05:08;102211.03;;;2.34;100.00
42105;BME280;61464;51.472;5.712;2022-10-12T05:07:34;102194.41;;;2.43;100.00
42105;BME280;61464;51.472;5.712;2022-10-12T05:09:59;102197.22;;;2.56;100.00
42105;BME280;61464;51.472;5.712;2022-10-12T05:12:25;102204.63;;;2.81;100.00
42105;BME280;61464;51.472;5.712;2022-10-12T05:14:51;102210.25;;;2.51;100.00
42105;BME280;61464;51.472;5.712;2022-10-12T05:17:17;102202.59;;;2.32;100.00
42105;BME280;61464;51.472;5.712;2022-10-12T05:19:43;102204.38;;;2.30;100.00
42105;BME280;61464;51.472;5.712;2022-10-12T05:22:08;102202.78;;;2.47;100.00
42105;BME280;61464;51.472;5.712;2022-10-12T05:24:34;102209.34;;;2.33;100.00
42105;BME280;61464;51.472;5.712;2022-10-12T05:27:00;102207.00;;;2.29;100.00
42105;BME280;61464;51.472;5.712;2022-10-12T05:29:27;102188.44;;;2.42;100.00
42105;BME280;61464;51.472;5.712;2022-10-12T05:31:53;102186.28;;;2.33;100.00
42105;BME280;61464;51.472;5.712;2022-10-12T05:34:18;102181.38;;;2.10;100.00
42105;BME280;61464;51.472;5.712;2022-10-12T05:36:44;102193.88;;;2.17;100.00
42105;BME280;61464;51.472;5.712;2022-10-12T05:39:10;102186.63;;;2.07;100.00
42105;BME280;61464;51.472;5.712;2022-10-12T05:41:36;102182.75;;;2.17;100.00
42105;BME280;61464;51.472;5.712;2022-10-12T05:44:02;102197.25;;;2.18;100.00
42105;BME280;61464;51.472;5.712;2022-10-12T05:46:28;102191.84;;;2.24;100.00
42105;BME280;61464;51.472;5.712;2022-10-12T05:48:53;102184.16;;;2.24;100.00
42105;BME280;61464;51.472;5.712;2022-10-12T05:51:19;102198.44;;;2.30;100.00
42105;BME280;61464;51.472;5.712;2022-10-12T05:53:45;102197.84;;;2.04;100.00
42105;BME280;61464;51.472;5.712;2022-10-12T05:56:11;102199.00;;;2.17;100.00
42105;BME280;61464;51.472;5.712;2022-10-12T05:58:36;102190.00;;;2.28;100.00
42105;BME280;61464;51.472;5.712;2022-10-12T06:01:09;102192.06;;;2.38;100.00
42105;BME280;61464;51.472;5.712;2022-10-12T06:03:35;102190.50;;;2.53;100.00
42105;BME280;61464;51.472;5.712;2022-10-12T06:06:03;102188.19;;;2.66;100.00
42105;BME280;61464;51.472;5.712;2022-10-12T06:08:30;102180.59;;;2.65;100.00
42105;BME280;61464;51.472;5.712;2022-10-12T06:10:56;102193.81;;;2.74;100.00
42105;BME280;61464;51.472;5.712;2022-10-12T06:13:22;102183.53;;;2.74;100.00
42105;BME280;61464;51.472;5.712;2022-10-12T06:15:48;102181.84;;;2.75;100.00
42105;BME280;61464;51.472;5.712;2022-10-12T06:18:15;102190.88;;;2.82;100.00
42105;BME280;61464;51.472;5.712;2022-10-12T06:20:46;102192.94;;;2.93;100.00
42105;BME280;61464;51.472;5.712;2022-10-12T06:23:12;102190.69;;;3.04;100.00
42105;BME280;61464;51.472;5.712;2022-10-12T06:25:38;102197.41;;;3.07;100.00
42105;BME280;61464;51.472;5.712;2022-10-12T06:28:04;102192.03;;;3.11;100.00
42105;BME280;61464;51.472;5.712;2022-10-12T06:30:30;102187.53;;;3.16;100.00
42105;BME280;61464;51.472;5.712;2022-10-12T06:32:55;102187.28;;;3.21;100.00
42105;BME280;61464;51.472;5.712;2022-10-12T06:35:21;102186.16;;;3.27;100.00
42105;BME280;61464;51.472;5.712;2022-10-12T06:37:49;102187.38;;;3.37;100.00
42105;BME280;61464;51.472;5.712;2022-10-12T06:40:16;102185.09;;;3.48;100.00
42105;BME280;61464;51.472;5.712;2022-10-12T06:42:42;102186.66;;;3.68;100.00
42105;BME280;61464;51.472;5.712;2022-10-12T06:45:08;102188.53;;;3.65;100.00
42105;BME280;61464;51.472;5.712;2022-10-12T06:47:34;102181.69;;;3.65;100.00
42105;BME280;61464;51.472;5.712;2022-10-12T06:50:00;102185.50;;;3.74;100.00
42105;BME280;61464;51.472;5.712;2022-10-12T06:52:26;102192.28;;;3.75;100.00
42105;BME280;61464;51.472;5.712;2022-10-12T06:54:51;102196.38;;;3.79;100.00
42105;BME280;61464;51.472;5.712;2022-10-12T06:57:17;102197.97;;;3.97;100.00
42105;BME280;61464;51.472;5.712;2022-10-12T06:59:43;102199.38;;;4.20;100.00
42105;BME280;61464;51.472;5.712;2022-10-12T07:02:10;102197.19;;;4.13;100.00
42105;BME280;61464;51.472;5.712;2022-10-12T07:04:36;102210.22;;;4.26;100.00
42105;BME280;61464;51.472;5.712;2022-10-12T07:07:02;102192.81;;;4.31;100.00
42105;BME280;61464;51.472;5.712;2022-10-12T07:09:28;102194.06;;;4.55;100.00
42105;BME280;61464;51.472;5.712;2022-10-12T07:11:54;102189.13;;;4.67;100.00
42105;BME280;61464;51.472;5.712;2022-10-12T07:14:20;102195.63;;;4.74;100.00
42105;BME280;61464;51.472;5.712;2022-10-12T07:16:46;102191.16;;;4.92;100.00
42105;BME280;61464;51.472;5.712;2022-10-12T07:19:12;102191.75;;;4.97;100.00
42105;BME280;61464;51.472;5.712;2022-10-12T07:21:38;102189.56;;;5.05;100.00
42105;BME280;61464;51.472;5.712;2022-10-12T07:24:04;102182.06;;;5.16;100.00
42105;BME280;61464;51.472;5.712;2022-10-12T07:26:30;102195.22;;;5.26;100.00
42105;BME280;61464;51.472;5.712;2022-10-12T07:28:57;102192.53;;;5.43;100.00
42105;BME280;61464;51.472;5.712;2022-10-12T07:31:23;102199.41;;;5.43;100.00
42105;BME280;61464;51.472;5.712;2022-10-12T07:33:49;102185.63;;;5.44;100.00
42105;BME280;61464;51.472;5.712;2022-10-12T07:36:15;102187.56;;;5.55;100.00
42105;BME280;61464;51.472;5.712;2022-10-12T07:38:41;102186.84;;;5.67;100.00
42105;BME280;61464;51.472;5.712;2022-10-12T07:41:10;102177.91;;;5.73;100.00
42105;BME280;61464;51.472;5.712;2022-10-12T07:43:36;102187.28;;;5.74;100.00
42105;BME280;61464;51.472;5.712;2022-10-12T07:46:03;102182.50;;;5.82;100.00
42105;BME280;61464;51.472;5.712;2022-10-12T07:48:29;102188.31;;;5.85;100.00
42105;BME280;61464;51.472;5.712;2022-10-12T07:50:56;102178.38;;;5.79;100.00
42105;BME280;61464;51.472;5.712;2022-10-12T07:53:26;102183.22;;;5.84;100.00
42105;BME280;61464;51.472;5.712;2022-10-12T07:56:02;102182.50;;;6.11;100.00
42105;BME280;61464;51.472;5.712;2022-10-12T07:58:30;102191.34;;;5.92;100.00
42105;BME280;61464;51.472;5.712;2022-10-12T08:01:02;102189.31;;;5.83;100.00
42105;BME280;61464;51.472;5.712;2022-10-12T08:03:28;102204.13;;;5.94;100.00
42105;BME280;61464;51.472;5.712;2022-10-12T08:05:53;102194.59;;;5.96;100.00
42105;BME280;61464;51.472;5.712;2022-10-12T08:08:19;102202.38;;;5.94;100.00
42105;BME280;61464;51.472;5.712;2022-10-12T08:10:45;102201.78;;;6.05;100.00
42105;BME280;61464;51.472;5.712;2022-10-12T08:13:11;102207.00;;;6.18;100.00
42105;BME280;61464;51.472;5.712;2022-10-12T08:15:36;102190.06;;;6.28;100.00
42105;BME280;61464;51.472;5.712;2022-10-12T08:18:02;102184.72;;;6.58;100.00
42105;BME280;61464;51.472;5.712;2022-10-12T08:20:28;102189.09;;;6.71;100.00
42105;BME280;61464;51.472;5.712;2022-10-12T08:22:54;102192.41;;;6.73;100.00
42105;BME280;61464;51.472;5.712;2022-10-12T08:25:20;102179.78;;;6.68;100.00
42105;BME280;61464;51.472;5.712;2022-10-12T08:27:46;102189.44;;;6.79;100.00
42105;BME280;61464;51.472;5.712;2022-10-12T08:30:12;102188.94;;;6.87;100.00
42105;BME280;61464;51.472;5.712;2022-10-12T08:32:38;102187.00;;;7.03;100.00
42105;BME280;61464;51.472;5.712;2022-10-12T08:35:04;102197.41;;;7.29;100.00
42105;BME280;61464;51.472;5.712;2022-10-12T08:37:30;102196.03;;;7.36;100.00
42105;BME280;61464;51.472;5.712;2022-10-12T08:39:56;102196.03;;;7.36;100.00
42105;BME280;61464;51.472;5.712;2022-10-12T08:45:59;102195.72;;;7.79;100.00
42105;BME280;61464;51.472;5.712;2022-10-12T08:51:29;102193.50;;;8.11;100.00
42105;BME280;61464;51.472;5.712;2022-10-12T08:54:05;102187.09;;;8.17;100.00
42105;BME280;61464;51.472;5.712;2022-10-12T08:56:31;102170.09;;;8.25;100.00
42105;BME280;61464;51.472;5.712;2022-10-12T08:59:01;102174.38;;;8.51;100.00
42105;BME280;61464;51.472;5.712;2022-10-12T09:04:58;102185.63;;;8.98;100.00
42105;BME280;61464;51.472;5.712;2022-10-12T09:07:37;102187.75;;;9.04;100.00
42105;BME280;61464;51.472;5.712;2022-10-12T09:15:42;102187.31;;;9.10;100.00
42105;BME280;61464;51.472;5.712;2022-10-12T09:18:17;102190.59;;;9.48;100.00
42105;BME280;61464;51.472;5.712;2022-10-12T09:20:50;102186.34;;;9.69;99.35
42105;BME280;61464;51.472;5.712;2022-10-12T09:23:29;102194.16;;;9.80;98.61
42105;BME280;61464;51.472;5.712;2022-10-12T09:26:14;102202.25;;;9.76;97.28
42105;BME280;61464;51.472;5.712;2022-10-12T09:28:46;102211.44;;;10.14;96.00
42105;BME280;61464;51.472;5.712;2022-10-12T09:34:19;102208.81;;;10.47;93.49
42105;BME280;61464;51.472;5.712;2022-10-12T09:36:45;102209.66;;;10.48;92.82
42105;BME280;61464;51.472;5.712;2022-10-12T09:39:32;102210.97;;;10.31;91.97
42105;BME280;61464;51.472;5.712;2022-10-12T09:41:58;102210.25;;;10.18;92.25
42105;BME280;61464;51.472;5.712;2022-10-12T09:48:07;102208.59;;;10.17;93.30
42105;BME280;61464;51.472;5.712;2022-10-12T09:49:51;102206.13;;;10.38;91.89
42105;BME280;61464;51.472;5.712;2022-10-12T09:52:22;102200.19;;;10.58;90.86
42105;BME280;61464;51.472;5.712;2022-10-12T09:55:18;102194.13;;;10.58;90.42
42105;BME280;61464;51.472;5.712;2022-10-12T09:57:54;102189.84;;;10.68;89.78
42105;BME280;61464;51.472;5.712;2022-10-12T10:00:32;102184.25;;;10.84;88.86
42105;BME280;61464;51.472;5.712;2022-10-12T10:03:00;102177.41;;;10.83;86.68
42105;BME280;61464;51.472;5.712;2022-10-12T10:05:33;102179.53;;;10.89;86.76
42105;BME280;61464;51.472;5.712;2022-10-12T10:08:21;102187.31;;;11.10;85.94
42105;BME280;61464;51.472;5.712;2022-10-12T10:10:49;102188.94;;;11.11;84.95
42105;BME280;61464;51.472;5.712;2022-10-12T10:13:16;102184.94;;;11.07;85.02
42105;BME280;61464;51.472;5.712;2022-10-12T10:15:46;102179.25;;;11.34;84.55
42105;BME280;61464;51.472;5.712;2022-10-12T10:21:07;102173.44;;;11.52;84.18
42105;BME280;61464;51.472;5.712;2022-10-12T10:23:49;102172.22;;;11.56;84.26
42105;BME280;61464;51.472;5.712;2022-10-12T10:26:19;102170.72;;;11.53;84.17
42105;BME280;61464;51.472;5.712;2022-10-12T10:28:48;102166.78;;;11.59;83.87
42105;BME280;61464;51.472;5.712;2022-10-12T10:31:22;102164.53;;;11.85;82.78
42105;BME280;61464;51.472;5.712;2022-10-12T10:36:37;102163.41;;;12.08;81.22
42105;BME280;61464;51.472;5.712;2022-10-12T10:39:15;102164.38;;;12.17;80.97
42105;BME280;61464;51.472;5.712;2022-10-12T10:41:42;102173.81;;;12.08;80.80
42105;BME280;61464;51.472;5.712;2022-10-12T10:46:51;102168.34;;;12.02;81.12
42105;BME280;61464;51.472;5.712;2022-10-12T10:52:01;102160.97;;;12.46;79.04
42105;BME280;61464;51.472;5.712;2022-10-12T10:54:36;102168.13;;;12.63;78.31
42105;BME280;61464;51.472;5.712;2022-10-12T10:59:56;102151.50;;;12.94;76.97
42105;BME280;61464;51.472;5.712;2022-10-12T11:03:03;102153.59;;;12.80;76.25
42105;BME280;61464;51.472;5.712;2022-10-12T11:05:43;102158.66;;;12.82;75.95
42105;BME280;61464;51.472;5.712;2022-10-12T11:08:24;102155.63;;;12.96;74.57
42105;BME280;61464;51.472;5.712;2022-10-12T11:11:03;102156.88;;;12.92;74.23
42105;BME280;61464;51.472;5.712;2022-10-12T11:14:18;102149.97;;;13.11;74.73
42105;BME280;61464;51.472;5.712;2022-10-12T11:16:40;102139.81;;;12.98;76.08
42105;BME280;61464;51.472;5.712;2022-10-12T11:22:13;102145.88;;;12.98;76.05
42105;BME280;61464;51.472;5.712;2022-10-12T11:25:11;102141.06;;;12.94;76.06
42105;BME280;61464;51.472;5.712;2022-10-12T11:27:40;102131.53;;;13.32;75.03
42105;BME280;61464;51.472;5.712;2022-10-12T11:30:19;102121.47;;;13.74;72.83
42105;BME280;61464;51.472;5.712;2022-10-12T11:33:02;102120.75;;;14.00;71.99
42105;BME280;61464;51.472;5.712;2022-10-12T11:35:40;102116.38;;;13.73;70.71
42105;BME280;61464;51.472;5.712;2022-10-12T11:38:34;102109.78;;;13.78;70.89
42105;BME280;61464;51.472;5.712;2022-10-12T11:41:14;102101.78;;;13.80;71.59
42105;BME280;61464;51.472;5.712;2022-10-12T11:50:03;102090.19;;;14.10;70.32
42105;BME280;61464;51.472;5.712;2022-10-12T11:52:44;102088.31;;;14.02;70.52
42105;BME280;61464;51.472;5.712;2022-10-12T11:55:56;102086.03;;;14.43;68.30
42105;BME280;61464;51.472;5.712;2022-10-12T11:58:29;102086.56;;;14.47;68.43
42105;BME280;61464;51.472;5.712;2022-10-12T12:01:19;102077.72;;;14.40;67.92
42105;BME280;61464;51.472;5.712;2022-10-12T12:04:20;102078.41;;;14.24;68.38
42105;BME280;61464;51.472;5.712;2022-10-12T12:06:53;102074.19;;;14.31;67.47
42105;BME280;61464;51.472;5.712;2022-10-12T12:09:41;102069.28;;;14.28;67.84
42105;BME280;61464;51.472;5.712;2022-10-12T12:12:21;102069.50;;;14.35;67.36
42105;BME280;61464;51.472;5.712;2022-10-12T12:23:27;102066.88;;;14.53;66.45
42105;BME280;61464;51.472;5.712;2022-10-12T12:28:44;102071.28;;;14.78;65.13
42105;BME280;61464;51.472;5.712;2022-10-12T12:31:23;102064.00;;;14.64;65.14
42105;BME280;61464;51.472;5.712;2022-10-12T12:34:13;102060.88;;;14.86;64.60
42105;BME280;61464;51.472;5.712;2022-10-12T12:36:46;102050.19;;;14.98;65.43
42105;BME280;61464;51.472;5.712;2022-10-12T12:39:32;102046.91;;;15.30;64.49
42105;BME280;61464;51.472;5.712;2022-10-12T12:44:43;102049.69;;;15.02;63.99
42105;BME280;61464;51.472;5.712;2022-10-12T12:58:58;102016.91;;;14.82;64.86
42105;BME280;61464;51.472;5.712;2022-10-12T13:07:56;102030.97;;;14.81;64.29
42105;BME280;61464;51.472;5.712;2022-10-12T13:10:58;102019.06;;;14.86;64.04
42105;BME280;61464;51.472;5.712;2022-10-12T13:13:52;102014.44;;;15.15;63.44
42105;BME280;61464;51.472;5.712;2022-10-12T13:19:34;102015.47;;;15.22;63.58
42105;BME280;61464;51.472;5.712;2022-10-12T13:22:27;102019.38;;;15.18;63.58
42105;BME280;61464;51.472;5.712;2022-10-12T13:25:02;102011.78;;;14.98;64.28
42105;BME280;61464;51.472;5.712;2022-10-12T13:27:47;102010.91;;;14.89;64.74
42105;BME280;61464;51.472;5.712;2022-10-12T13:40:41;101994.78;;;15.45;64.08
42105;BME280;61464;51.472;5.712;2022-10-12T13:45:53;101987.31;;;15.07;64.95
42105;BME280;61464;51.472;5.712;2022-10-12T13:48:22;101997.00;;;15.32;63.18
42105;BME280;61464;51.472;5.712;2022-10-12T13:50:59;102008.28;;;15.24;64.67
42105;BME280;61464;51.472;5.712;2022-10-12T13:53:32;102006.81;;;15.29;63.82
42105;BME280;61464;51.472;5.712;2022-10-12T13:56:17;101994.56;;;15.22;64.08
42105;BME280;61464;51.472;5.712;2022-10-12T13:58:44;102003.25;;;15.39;63.71
42105;BME280;61464;51.472;5.712;2022-10-12T14:01:12;101996.44;;;15.03;64.08
42105;BME280;61464;51.472;5.712;2022-10-12T14:03:42;101988.34;;;14.88;65.05
42105;BME280;61464;51.472;5.712;2022-10-12T14:06:30;101981.84;;;14.58;64.39
42105;BME280;61464;51.472;5.712;2022-10-12T14:09:07;101974.94;;;14.31;65.46
42105;BME280;61464;51.472;5.712;2022-10-12T14:11:34;101982.94;;;14.29;64.57
42105;BME280;61464;51.472;5.712;2022-10-12T14:14:01;101991.06;;;14.26;65.23
42105;BME280;61464;51.472;5.712;2022-10-12T14:16:27;101981.16;;;14.30;63.86
42105;BME280;61464;51.472;5.712;2022-10-12T14:18:53;101984.72;;;14.29;64.66
42105;BME280;61464;51.472;5.712;2022-10-12T14:21:25;101975.88;;;14.48;63.96
42105;BME280;61464;51.472;5.712;2022-10-12T14:23:56;101970.19;;;14.53;64.04
42105;BME280;61464;51.472;5.712;2022-10-12T14:26:32;101967.56;;;14.53;64.20
42105;BME280;61464;51.472;5.712;2022-10-12T14:32:01;101970.53;;;14.84;63.61
42105;BME280;61464;51.472;5.712;2022-10-12T14:37:24;101959.38;;;15.16;63.02
42105;BME280;61464;51.472;5.712;2022-10-12T14:39:51;101951.34;;;15.01;63.14
42105;BME280;61464;51.472;5.712;2022-10-12T14:42:30;101952.50;;;15.15;63.05
42105;BME280;61464;51.472;5.712;2022-10-12T14:44:57;101957.69;;;15.07;62.70
42105;BME280;61464;51.472;5.712;2022-10-12T14:49:59;101952.22;;;14.84;64.88
42105;BME280;61464;51.472;5.712;2022-10-12T14:55:14;101951.66;;;14.64;65.51
42105;BME280;61464;51.472;5.712;2022-10-12T14:57:40;101947.50;;;14.53;65.40
42105;BME280;61464;51.472;5.712;2022-10-12T15:00:07;101953.94;;;14.41;64.70
42105;BME280;61464;51.472;5.712;2022-10-12T15:02:34;101939.00;;;14.25;65.76
42105;BME280;61464;51.472;5.712;2022-10-12T15:05:01;101937.38;;;14.24;65.44
42105;BME280;61464;51.472;5.712;2022-10-12T15:07:32;101940.44;;;14.19;65.38
42105;BME280;61464;51.472;5.712;2022-10-12T15:09:58;101930.19;;;14.26;65.54
42105;BME280;61464;51.472;5.712;2022-10-12T15:12:26;101933.56;;;14.18;66.54
42105;BME280;61464;51.472;5.712;2022-10-12T15:14:56;101929.34;;;14.17;66.79
42105;BME280;61464;51.472;5.712;2022-10-12T15:17:23;101920.25;;;14.03;67.06